createdAt,value
2023-01-17T00:03:29.081Z,90.89
2023-01-17T00:08:28.968Z,91.86
2023-01-17T00:13:28.912Z,90.89
2023-01-17T00:18:28.827Z,91.03
2023-01-17T00:23:28.899Z,91.09
2023-01-17T00:28:28.790Z,90.93
2023-01-17T00:33:28.686Z,91.08
2023-01-17T00:38:28.594Z,91.60
2023-01-17T00:43:28.541Z,91.39
2023-01-17T00:48:28.483Z,91.55
2023-01-17T00:53:28.467Z,91.28
2023-01-17T00:58:28.414Z,91.28
2023-01-17T01:03:28.454Z,91.49
2023-01-17T01:08:28.281Z,90.83
2023-01-17T01:13:28.202Z,91.18
2023-01-17T01:18:28.169Z,91.74
2023-01-17T01:23:28.135Z,90.91
2023-01-17T01:28:28.041Z,91.89
2023-01-17T01:33:28.000Z,91.31
2023-01-17T01:38:27.975Z,91.16
2023-01-17T01:43:27.893Z,92.35
2023-01-17T01:48:28.882Z,92.30
2023-01-17T01:53:27.901Z,92.10
2023-01-17T01:58:27.737Z,91.78
2023-01-17T02:03:27.729Z,91.89
2023-01-17T02:08:27.678Z,92.10
2023-01-17T02:13:28.690Z,92.14
2023-01-17T02:18:27.607Z,91.83
2023-01-17T02:23:27.460Z,91.52
2023-01-17T02:28:27.421Z,90.58
2023-01-17T02:33:27.395Z,90.83
2023-01-17T02:38:27.297Z,91.00
2023-01-17T02:43:27.250Z,90.69
2023-01-17T02:48:27.177Z,90.83
2023-01-17T02:53:28.227Z,91.24
2023-01-17T02:58:27.112Z,91.60
2023-01-17T03:03:27.010Z,90.45
2023-01-17T03:08:26.996Z,90.56
2023-01-17T03:13:26.940Z,90.81
2023-01-17T03:18:26.875Z,91.12
2023-01-17T03:23:26.808Z,91.39
2023-01-17T03:28:26.826Z,90.45
2023-01-17T03:33:26.801Z,90.77
2023-01-17T03:38:26.677Z,90.52
2023-01-17T03:43:26.594Z,90.10
2023-01-17T03:48:26.550Z,90.93
2023-01-17T03:53:26.489Z,91.08
2023-01-17T03:58:26.421Z,90.41
2023-01-17T04:03:26.408Z,90.41
2023-01-17T04:08:26.346Z,90.72
2023-01-17T04:13:26.283Z,90.56
2023-01-17T04:18:26.347Z,90.97
2023-01-17T04:23:26.153Z,90.31
2023-01-17T04:28:26.119Z,90.41
2023-01-17T04:33:26.045Z,90.52
2023-01-17T04:38:26.027Z,89.94
2023-01-17T04:43:25.933Z,89.67
2023-01-17T04:48:25.999Z,91.08
2023-01-17T04:53:30.343Z,90.52
2023-01-17T04:58:25.893Z,90.25
2023-01-17T05:03:25.921Z,89.94
2023-01-17T05:08:25.831Z,89.31
2023-01-17T05:13:25.623Z,89.52
2023-01-17T05:18:25.577Z,89.62
2023-01-17T05:23:25.500Z,89.83
2023-01-17T05:28:25.438Z,89.77
2023-01-17T05:33:25.406Z,89.62
2023-01-17T05:38:25.365Z,89.52
2023-01-17T05:43:25.488Z,89.56
2023-01-17T05:48:25.447Z,89.04
2023-01-17T05:53:25.174Z,89.62
2023-01-17T05:58:25.125Z,89.29
2023-01-17T06:03:25.069Z,89.81
2023-01-17T06:08:25.130Z,89.15
2023-01-17T06:13:25.069Z,88.42
2023-01-17T06:18:24.932Z,88.17
2023-01-17T06:23:25.037Z,88.52
2023-01-17T06:28:24.839Z,88.59
2023-01-17T06:33:24.774Z,88.00
2023-01-17T06:38:24.853Z,88.73
2023-01-17T06:43:24.764Z,88.69
2023-01-17T06:48:24.624Z,89.15
2023-01-17T06:53:24.546Z,88.31
2023-01-17T06:58:24.487Z,88.07
2023-01-17T07:03:24.446Z,89.00
2023-01-17T07:08:24.394Z,88.73
2023-01-17T07:13:25.329Z,88.31
2023-01-17T07:18:24.257Z,88.38
2023-01-17T07:23:24.294Z,87.90
2023-01-17T07:28:24.217Z,87.32
2023-01-17T07:33:24.119Z,88.40
2023-01-17T07:38:24.029Z,88.67
2023-01-17T07:43:24.076Z,88.56
2023-01-17T07:48:24.044Z,89.29
2023-01-17T07:53:23.929Z,88.84
2023-01-17T07:58:23.899Z,88.21
2023-01-17T08:03:23.862Z,87.90
2023-01-17T08:08:23.704Z,87.65
2023-01-17T08:13:23.661Z,87.76
2023-01-17T08:18:23.593Z,87.76
2023-01-17T08:23:23.582Z,87.86
2023-01-17T08:28:23.603Z,87.65
2023-01-17T08:33:23.555Z,88.02
2023-01-17T08:38:23.386Z,88.23
2023-01-17T08:43:23.434Z,87.37
2023-01-17T08:48:23.356Z,87.16
2023-01-17T08:53:23.231Z,86.54
2023-01-17T08:58:23.135Z,86.78
2023-01-17T09:03:23.130Z,87.03
2023-01-17T09:08:23.116Z,87.96
2023-01-17T09:13:23.062Z,86.82
2023-01-17T09:18:23.029Z,86.51
2023-01-17T09:23:22.922Z,86.36
2023-01-17T09:28:23.889Z,86.22
2023-01-17T09:33:22.793Z,85.81
2023-01-17T09:38:22.760Z,85.50
2023-01-17T09:43:22.687Z,84.81
2023-01-17T09:48:22.758Z,85.02
2023-01-17T09:53:22.667Z,85.22
2023-01-17T09:58:22.532Z,85.08
2023-01-17T10:03:22.581Z,85.33
2023-01-17T10:08:22.471Z,85.43
2023-01-17T10:13:22.340Z,86.36
2023-01-17T10:18:30.022Z,85.50
2023-01-17T10:23:23.272Z,84.88
2023-01-17T10:28:22.208Z,85.08
2023-01-17T10:33:22.209Z,85.39
2023-01-17T10:38:22.140Z,84.31
2023-01-17T10:43:22.105Z,83.51
2023-01-17T10:48:23.270Z,83.44
2023-01-17T10:53:21.931Z,80.43
2023-01-17T10:58:21.845Z,80.08
2023-01-17T11:03:21.822Z,81.23
2023-01-17T11:08:22.781Z,79.57
2023-01-17T11:13:21.716Z,79.36
2023-01-17T11:18:21.630Z,80.02
2023-01-17T11:23:21.649Z,80.40
2023-01-17T11:28:21.507Z,80.02
2023-01-17T11:33:21.485Z,79.36
2023-01-17T11:38:21.439Z,79.98
2023-01-17T11:43:21.487Z,79.91
2023-01-17T11:48:21.298Z,80.47
2023-01-17T11:53:21.362Z,80.26
2023-01-17T11:58:21.276Z,80.64
2023-01-17T12:03:21.141Z,78.78
2023-01-17T12:08:21.086Z,79.91
2023-01-17T12:13:21.021Z,79.71
2023-01-17T12:18:21.030Z,81.44
2023-01-17T12:23:20.952Z,80.74
2023-01-17T12:28:20.902Z,80.78
2023-01-17T12:33:20.864Z,80.68
2023-01-17T12:38:32.075Z,80.68
2023-01-17T12:43:21.730Z,81.51
2023-01-17T12:48:20.697Z,80.68
2023-01-17T12:53:20.712Z,81.96
2023-01-17T12:58:20.732Z,81.40
2023-01-17T13:03:20.599Z,79.74
2023-01-17T13:08:20.536Z,79.64
2023-01-17T13:13:20.469Z,78.09
2023-01-17T13:18:20.550Z,79.44
2023-01-17T13:23:20.279Z,79.78
2023-01-17T13:28:20.192Z,78.85
2023-01-17T13:33:20.191Z,78.85
2023-01-17T13:38:20.154Z,76.57
2023-01-17T13:43:20.093Z,76.81
2023-01-17T13:48:20.012Z,76.81
2023-01-17T13:53:19.995Z,77.54
2023-01-17T13:58:19.886Z,75.26
2023-01-17T14:03:19.943Z,75.67
2023-01-17T14:08:19.812Z,75.88
2023-01-17T14:13:19.733Z,77.26
2023-01-17T14:18:19.810Z,76.85
2023-01-17T14:23:19.621Z,77.06
2023-01-17T14:28:20.629Z,78.61
2023-01-17T14:33:19.616Z,80.83
2023-01-17T14:38:19.562Z,82.07
2023-01-17T14:43:19.431Z,82.28
2023-01-17T14:48:19.342Z,83.73
2023-01-17T14:53:19.372Z,82.42
2023-01-17T14:58:19.317Z,84.19
2023-01-17T15:03:19.281Z,84.19
2023-01-17T15:08:19.192Z,84.22
2023-01-17T15:13:22.564Z,84.12
2023-01-17T15:18:20.091Z,85.05
2023-01-17T15:23:18.986Z,84.58
2023-01-17T15:28:18.944Z,84.47
2023-01-17T15:33:18.924Z,85.82
2023-01-17T15:38:18.854Z,85.55
2023-01-17T15:43:18.879Z,84.72
2023-01-17T15:48:18.731Z,84.03
2023-01-17T15:53:18.771Z,84.48
2023-01-17T15:58:18.590Z,84.69
2023-01-17T16:03:18.554Z,84.90
2023-01-17T16:08:18.521Z,83.69
2023-01-17T16:13:18.525Z,84.31
2023-01-17T16:18:18.443Z,84.14
2023-01-17T16:23:21.753Z,86.54
2023-01-17T16:28:18.342Z,86.12
2023-01-17T16:33:18.301Z,86.58
2023-01-17T16:38:18.195Z,85.74
2023-01-17T16:43:18.136Z,85.26
2023-01-17T16:48:19.331Z,85.26
2023-01-17T16:53:18.009Z,86.24
2023-01-17T16:58:17.975Z,86.87
2023-01-17T17:03:18.960Z,86.87
2023-01-17T17:08:17.988Z,86.87
2023-01-17T17:13:17.861Z,86.80
2023-01-17T17:18:17.738Z,87.43
2023-01-17T17:23:17.663Z,87.01
2023-01-17T17:28:17.599Z,87.37
2023-01-17T17:33:17.575Z,87.88
2023-01-17T17:38:17.586Z,87.57
2023-01-17T17:43:17.483Z,87.30
2023-01-17T17:48:17.420Z,87.82
2023-01-17T17:53:17.331Z,87.71
2023-01-17T17:58:17.310Z,88.13
2023-01-17T18:03:17.237Z,88.34
2023-01-17T18:08:17.167Z,88.13
2023-01-17T18:13:17.255Z,87.96
2023-01-17T18:18:19.244Z,88.59
2023-01-17T18:23:17.121Z,88.28
2023-01-17T18:28:16.979Z,88.11
2023-01-17T18:33:16.921Z,88.64
2023-01-17T18:38:17.076Z,88.42
2023-01-17T18:43:16.834Z,89.26
2023-01-17T18:48:16.775Z,89.36
2023-01-17T18:53:16.790Z,89.84
2023-01-17T18:58:16.758Z,88.74
2023-01-17T19:03:16.582Z,89.68
2023-01-17T19:08:16.554Z,89.05
2023-01-17T19:13:16.519Z,88.74
2023-01-17T19:18:16.577Z,89.26
2023-01-17T19:23:16.539Z,89.20
2023-01-17T19:28:16.474Z,88.99
2023-01-17T19:33:16.302Z,88.71
2023-01-17T19:38:16.224Z,89.34
2023-01-17T19:43:16.247Z,89.20
2023-01-17T19:48:16.295Z,89.55
2023-01-17T19:53:16.255Z,89.55
2023-01-17T19:58:16.203Z,89.23
2023-01-17T20:03:15.950Z,88.92
2023-01-17T20:08:15.893Z,88.92
2023-01-17T20:13:15.843Z,89.13
2023-01-17T20:18:15.834Z,89.03
2023-01-17T20:23:15.794Z,89.28
2023-01-17T20:28:16.800Z,89.28
2023-01-17T20:33:15.658Z,89.07
2023-01-17T20:38:15.584Z,89.07
2023-01-17T20:43:15.522Z,89.11
2023-01-17T20:48:18.980Z,89.48
2023-01-17T20:53:15.436Z,89.11
2023-01-17T20:58:15.439Z,89.84
2023-01-17T21:03:15.356Z,89.63
2023-01-17T21:08:17.158Z,89.42
2023-01-17T21:13:15.204Z,89.32
2023-01-17T21:18:15.313Z,88.90
2023-01-17T21:23:15.243Z,88.94
2023-01-17T21:28:15.058Z,88.84
2023-01-17T21:33:15.071Z,89.04
2023-01-17T21:38:14.943Z,88.94
2023-01-17T21:43:14.914Z,89.47
2023-01-17T21:48:14.829Z,89.95
2023-01-17T21:53:14.919Z,89.15
2023-01-17T21:58:14.830Z,89.25
2023-01-17T22:03:19.181Z,89.04
2023-01-17T22:08:14.708Z,88.84
2023-01-17T22:13:14.587Z,88.87
2023-01-17T22:18:14.535Z,88.77
2023-01-17T22:23:14.744Z,89.50
2023-01-17T22:28:24.069Z,88.94
2023-01-17T22:33:14.477Z,88.56
2023-01-17T22:38:14.442Z,88.77
2023-01-17T22:43:14.293Z,88.49
2023-01-17T22:48:14.254Z,89.34
2023-01-17T22:53:14.155Z,88.87
2023-01-17T22:58:14.156Z,88.60
2023-01-17T23:03:14.274Z,88.60
2023-01-17T23:08:14.080Z,88.60
2023-01-17T23:13:14.054Z,88.92
2023-01-17T23:18:13.928Z,88.60
2023-01-17T23:23:13.919Z,88.60
2023-01-17T23:28:13.836Z,88.64
2023-01-17T23:33:13.806Z,88.22
2023-01-17T23:38:13.814Z,88.75
2023-01-17T23:43:13.733Z,88.64
2023-01-17T23:48:13.601Z,88.75
2023-01-17T23:53:13.591Z,88.43
2023-01-17T23:58:13.550Z,88.54
